Milwaukee, WI

10:29 PM CDT on August 27, 2016 (GMT -0500)
Milwaukee Harbor | | Change Station

Elev 591 ft 43.02 °N, 87.91 °W | Updated 15 seconds ago

Mostly Cloudy
Mostly Cloudy
71.1 °F
Feels Like 71.1 °F
N
0.0
Wind Variable Wind from SE
Gusts 0.0 mph

Today
High -- | Low -- °F
--% Chance of Precip.
Yesterday
High -- | Low -- °F
Precip. -- in
Pressure 30.06 in
Visibility 9.0 miles
Clouds Few 3500 ft
Mostly Cloudy 25000 ft
Dew Point 69 °F
Humidity 93%
Rainfall 0.46 in
Snow Depth Not available.
6:11 AM 7:34 PM
Waning Crescent, 19% visible
METAR KMKE 280252Z 00000KT 9SM FEW035 BKN250 21/19 A3007 RMK AO2 SLP179 OCNL LTG DSNT NE AND SW CB DSNT NE AND SW T02060189 51021
Pressure 30.06 in
Visibility 9.0 miles
Clouds Few 3500 ft
Mostly Cloudy 25000 ft
Dew Point 69 °F
Humidity 93%
Rainfall 0.46 in
Snow Depth Not available.
6:11 AM 7:34 PM
Waning Crescent, 19% visible
METAR KMKE 280252Z 00000KT 9SM FEW035 BKN250 21/19 A3007 RMK AO2 SLP179 OCNL LTG DSNT NE AND SW CB DSNT NE AND SW T02060189 51021

10-Day Weather Forecast

Almanac

Astronomy

Aug. 27, 2016 Rise Set
Actual Time
Civil Twilight
Nautical Twilight
Astronomical Twilight
Moon
Length of Visible Light
Length of Day
Tomorrow will be .
, % of the Moon is Illuminated

Today's Extremes

State Highs State Lows

Community

WunderPhotos

Upload Photos

1,935,514 photos uploaded!

WunderBlog® & News

Nearby

Air Quality

  Air Quality AQ Index Pollutant
Not available.

Snow Depth

Station Depth Elevation

Earthquake Activity

City Distance Mag. Time & Date
Minimum magnitude displayed is 2.5.

Coastal Water Temperatures

Place Temperature

Stations

Nearby Weather Stations

Station Location Temp. Windchill Dew Point Humidity Wind Precip. Elev Updated Type
                   

Watches & Warnings

There are currently no watches in effect.